sensor_id;sensor_type;location;lat;lon;timestamp;pressure;altitude;pressure_sealevel;temperature;humidity
26839;BME280;40088;51.214;6.786;2023-02-19T00:06:59;101506.69;;;17.29;54.69
26839;BME280;40088;51.214;6.786;2023-02-19T00:16:59;101502.69;;;17.31;54.73
26839;BME280;40088;51.214;6.786;2023-02-19T00:27:00;101487.38;;;17.29;54.68
26839;BME280;40088;51.214;6.786;2023-02-19T00:37:00;101484.63;;;17.29;54.76
26839;BME280;40088;51.214;6.786;2023-02-19T00:47:00;101476.38;;;17.29;54.61
26839;BME280;40088;51.214;6.786;2023-02-19T00:57:00;101472.56;;;17.30;54.68
26839;BME280;40088;51.214;6.786;2023-02-19T01:07:01;101463.66;;;17.28;54.74
26839;BME280;40088;51.214;6.786;2023-02-19T01:17:01;101470.00;;;17.28;54.71
26839;BME280;40088;51.214;6.786;2023-02-19T01:27:01;101467.44;;;17.27;54.92
26839;BME280;40088;51.214;6.786;2023-02-19T01:37:01;101473.81;;;17.27;54.90
26839;BME280;40088;51.214;6.786;2023-02-19T01:47:02;101466.41;;;17.28;54.70
26839;BME280;40088;51.214;6.786;2023-02-19T01:57:05;101473.81;;;17.27;54.77
26839;BME280;40088;51.214;6.786;2023-02-19T02:07:08;101486.72;;;17.27;54.69
26839;BME280;40088;51.214;6.786;2023-02-19T02:17:46;101483.09;;;17.26;54.96
26839;BME280;40088;51.214;6.786;2023-02-19T02:38:17;101469.16;;;17.28;54.71
26839;BME280;40088;51.214;6.786;2023-02-19T02:58:33;101476.38;;;17.29;54.83
26839;BME280;40088;51.214;6.786;2023-02-19T03:08:39;101483.97;;;17.27;54.79
26839;BME280;40088;51.214;6.786;2023-02-19T03:18:44;101494.09;;;17.26;54.75
26839;BME280;40088;51.214;6.786;2023-02-19T03:29:05;101513.38;;;17.26;54.87
26839;BME280;40088;51.214;6.786;2023-02-19T03:39:25;101511.53;;;17.27;54.92
26839;BME280;40088;51.214;6.786;2023-02-19T03:49:34;101517.88;;;17.27;54.80
26839;BME280;40088;51.214;6.786;2023-02-19T03:59:51;101532.50;;;17.28;54.87
26839;BME280;40088;51.214;6.786;2023-02-19T04:09:53;101535.25;;;17.28;54.84
26839;BME280;40088;51.214;6.786;2023-02-19T04:19:55;101552.66;;;17.28;54.86
26839;BME280;40088;51.214;6.786;2023-02-19T04:29:57;101567.47;;;17.27;54.75
26839;BME280;40088;51.214;6.786;2023-02-19T04:39:58;101574.69;;;17.28;54.90
26839;BME280;40088;51.214;6.786;2023-02-19T04:49:58;101584.00;;;17.27;55.00
26839;BME280;40088;51.214;6.786;2023-02-19T04:59:58;101594.16;;;17.27;54.94
26839;BME280;40088;51.214;6.786;2023-02-19T05:09:58;101606.03;;;17.27;54.79
26839;BME280;40088;51.214;6.786;2023-02-19T05:19:59;101617.03;;;17.27;54.82
26839;BME280;40088;51.214;6.786;2023-02-19T05:29:59;101640.59;;;17.30;54.73
26839;BME280;40088;51.214;6.786;2023-02-19T05:39:59;101648.00;;;17.29;54.64
26839;BME280;40088;51.214;6.786;2023-02-19T05:50:00;101661.97;;;17.28;54.93
26839;BME280;40088;51.214;6.786;2023-02-19T06:00:00;101673.00;;;17.28;54.89
26839;BME280;40088;51.214;6.786;2023-02-19T06:10:01;101683.81;;;17.29;54.74
26839;BME280;40088;51.214;6.786;2023-02-19T06:20:01;101680.41;;;17.27;54.91
26839;BME280;40088;51.214;6.786;2023-02-19T06:30:02;101684.88;;;17.28;54.84
26839;BME280;40088;51.214;6.786;2023-02-19T06:40:02;101711.56;;;17.28;54.86
26839;BME280;40088;51.214;6.786;2023-02-19T06:50:03;101713.28;;;17.29;54.90
26839;BME280;40088;51.214;6.786;2023-02-19T07:00:04;101734.44;;;17.28;54.93
26839;BME280;40088;51.214;6.786;2023-02-19T07:10:04;101761.81;;;17.30;54.87
26839;BME280;40088;51.214;6.786;2023-02-19T07:20:05;101770.94;;;17.30;54.85
26839;BME280;40088;51.214;6.786;2023-02-19T07:30:05;101791.09;;;17.31;54.91
26839;BME280;40088;51.214;6.786;2023-02-19T07:40:06;101810.38;;;17.31;54.88
26839;BME280;40088;51.214;6.786;2023-02-19T07:50:07;101824.13;;;17.31;54.84
26839;BME280;40088;51.214;6.786;2023-02-19T08:00:07;101844.28;;;17.31;54.67
26839;BME280;40088;51.214;6.786;2023-02-19T08:10:08;101852.72;;;17.30;54.82
26839;BME280;40088;51.214;6.786;2023-02-19T08:20:26;101857.19;;;17.31;54.76
26839;BME280;40088;51.214;6.786;2023-02-19T08:30:28;101877.53;;;17.30;54.87
26839;BME280;40088;51.214;6.786;2023-02-19T08:40:29;101883.03;;;17.30;54.72
26839;BME280;40088;51.214;6.786;2023-02-19T08:50:29;101889.41;;;17.30;54.83
26839;BME280;40088;51.214;6.786;2023-02-19T09:00:29;101898.53;;;17.31;54.70
26839;BME280;40088;51.214;6.786;2023-02-19T09:10:31;101888.53;;;17.30;54.97
26839;BME280;40088;51.214;6.786;2023-02-19T09:20:32;101914.19;;;17.30;54.84
26839;BME280;40088;51.214;6.786;2023-02-19T09:30:32;101931.56;;;17.31;54.90
26839;BME280;40088;51.214;6.786;2023-02-19T09:40:34;101940.03;;;17.29;54.76
26839;BME280;40088;51.214;6.786;2023-02-19T09:50:39;101943.63;;;17.30;54.85
26839;BME280;40088;51.214;6.786;2023-02-19T10:00:40;101955.50;;;17.30;54.76
26839;BME280;40088;51.214;6.786;2023-02-19T10:10:42;101977.56;;;17.30;54.83
26839;BME280;40088;51.214;6.786;2023-02-19T10:20:43;102019.75;;;17.31;54.74
26839;BME280;40088;51.214;6.786;2023-02-19T10:30:49;102010.47;;;17.32;54.86
26839;BME280;40088;51.214;6.786;2023-02-19T10:40:56;102044.38;;;17.32;54.83
26839;BME280;40088;51.214;6.786;2023-02-19T10:51:01;102048.00;;;17.33;54.83
26839;BME280;40088;51.214;6.786;2023-02-19T11:11:49;102083.81;;;17.33;54.85
26839;BME280;40088;51.214;6.786;2023-02-19T11:21:51;102072.25;;;17.29;54.85
26839;BME280;40088;51.214;6.786;2023-02-19T11:31:51;102078.31;;;17.33;54.63
26839;BME280;40088;51.214;6.786;2023-02-19T11:52:12;102066.44;;;17.32;54.57
26839;BME280;40088;51.214;6.786;2023-02-19T12:02:30;102056.28;;;17.33;54.74
26839;BME280;40088;51.214;6.786;2023-02-19T12:13:04;102049.03;;;17.32;54.73
26839;BME280;40088;51.214;6.786;2023-02-19T12:34:05;102080.22;;;17.32;54.79
26839;BME280;40088;51.214;6.786;2023-02-19T13:04:23;102075.56;;;17.33;54.81
26839;BME280;40088;51.214;6.786;2023-02-19T13:14:37;102070.72;;;17.35;54.87
26839;BME280;40088;51.214;6.786;2023-02-19T13:24:41;102078.31;;;17.33;54.97
26839;BME280;40088;51.214;6.786;2023-02-19T13:45:22;102095.69;;;17.33;54.82
26839;BME280;40088;51.214;6.786;2023-02-19T14:06:08;102110.34;;;17.34;54.93
26839;BME280;40088;51.214;6.786;2023-02-19T14:16:29;102136.84;;;17.35;54.78
26839;BME280;40088;51.214;6.786;2023-02-19T14:26:31;102148.91;;;17.34;54.93
26839;BME280;40088;51.214;6.786;2023-02-19T14:36:42;102150.63;;;17.35;54.94
26839;BME280;40088;51.214;6.786;2023-02-19T14:46:50;102151.66;;;17.34;54.87
26839;BME280;40088;51.214;6.786;2023-02-19T14:56:53;102169.06;;;17.34;54.99
26839;BME280;40088;51.214;6.786;2023-02-19T15:06:54;102157.19;;;17.34;54.97
26839;BME280;40088;51.214;6.786;2023-02-19T15:16:59;102141.31;;;17.36;54.99
26839;BME280;40088;51.214;6.786;2023-02-19T15:27:00;102118.28;;;17.37;54.78
26839;BME280;40088;51.214;6.786;2023-02-19T15:37:07;102107.41;;;17.35;54.79
26839;BME280;40088;51.214;6.786;2023-02-19T15:47:19;102090.00;;;17.35;54.92
26839;BME280;40088;51.214;6.786;2023-02-19T15:57:26;102099.00;;;17.37;54.77
26839;BME280;40088;51.214;6.786;2023-02-19T16:07:30;102111.03;;;17.36;54.94
26839;BME280;40088;51.214;6.786;2023-02-19T16:17:33;102137.56;;;17.37;54.86
26839;BME280;40088;51.214;6.786;2023-02-19T16:27:38;102154.97;;;17.37;54.94
26839;BME280;40088;51.214;6.786;2023-02-19T16:37:55;102173.38;;;17.37;54.83
26839;BME280;40088;51.214;6.786;2023-02-19T16:47:55;102187.00;;;17.38;54.88
26839;BME280;40088;51.214;6.786;2023-02-19T16:57:55;102217.47;;;17.37;54.81
26839;BME280;40088;51.214;6.786;2023-02-19T17:07:56;102233.84;;;17.38;54.83
26839;BME280;40088;51.214;6.786;2023-02-19T17:17:56;102247.78;;;17.37;54.81
26839;BME280;40088;51.214;6.786;2023-02-19T17:27:56;102264.16;;;17.38;54.62
26839;BME280;40088;51.214;6.786;2023-02-19T17:37:56;102265.00;;;17.39;54.50
26839;BME280;40088;51.214;6.786;2023-02-19T17:47:57;102288.09;;;17.38;54.51
26839;BME280;40088;51.214;6.786;2023-02-19T17:57:58;102294.63;;;17.37;54.67
26839;BME280;40088;51.214;6.786;2023-02-19T18:07:59;102292.88;;;17.36;54.68
26839;BME280;40088;51.214;6.786;2023-02-19T18:17:59;102315.78;;;17.36;54.62
26839;BME280;40088;51.214;6.786;2023-02-19T18:27:59;102305.47;;;17.38;54.51
26839;BME280;40088;51.214;6.786;2023-02-19T18:37:59;102305.66;;;17.37;54.45
26839;BME280;40088;51.214;6.786;2023-02-19T18:48:00;102323.91;;;17.38;54.52
26839;BME280;40088;51.214;6.786;2023-02-19T18:58:00;102325.63;;;17.39;54.30
26839;BME280;40088;51.214;6.786;2023-02-19T19:08:00;102345.94;;;17.38;54.32
26839;BME280;40088;51.214;6.786;2023-02-19T19:18:01;102340.44;;;17.38;54.35
26839;BME280;40088;51.214;6.786;2023-02-19T19:28:01;102356.13;;;17.37;54.27
26839;BME280;40088;51.214;6.786;2023-02-19T19:38:02;102353.50;;;17.36;54.37
26839;BME280;40088;51.214;6.786;2023-02-19T19:48:02;102342.34;;;17.37;54.35
26839;BME280;40088;51.214;6.786;2023-02-19T19:58:02;102347.69;;;17.39;54.40
26839;BME280;40088;51.214;6.786;2023-02-19T20:08:03;102358.00;;;17.37;54.25
26839;BME280;40088;51.214;6.786;2023-02-19T20:18:03;102372.66;;;17.37;54.24
26839;BME280;40088;51.214;6.786;2023-02-19T20:28:04;102381.78;;;17.38;54.06
26839;BME280;40088;51.214;6.786;2023-02-19T20:38:04;102368.84;;;17.38;54.23
26839;BME280;40088;51.214;6.786;2023-02-19T20:48:04;102384.38;;;17.39;54.12
26839;BME280;40088;51.214;6.786;2023-02-19T20:58:05;102412.09;;;17.38;54.05
26839;BME280;40088;51.214;6.786;2023-02-19T21:08:05;102423.09;;;17.38;54.22
26839;BME280;40088;51.214;6.786;2023-02-19T21:18:05;102411.75;;;17.41;53.94
26839;BME280;40088;51.214;6.786;2023-02-19T21:28:06;102400.91;;;17.39;54.09
26839;BME280;40088;51.214;6.786;2023-02-19T21:38:08;102402.09;;;17.37;53.81
26839;BME280;40088;51.214;6.786;2023-02-19T21:48:08;102415.69;;;17.38;53.83
26839;BME280;40088;51.214;6.786;2023-02-19T21:58:09;102402.78;;;17.39;53.84
26839;BME280;40088;51.214;6.786;2023-02-19T22:08:09;102404.50;;;17.40;53.67
26839;BME280;40088;51.214;6.786;2023-02-19T22:18:09;102407.44;;;17.38;53.66
26839;BME280;40088;51.214;6.786;2023-02-19T22:28:10;102411.22;;;17.37;53.54
26839;BME280;40088;51.214;6.786;2023-02-19T22:38:10;102402.97;;;17.37;53.50
26839;BME280;40088;51.214;6.786;2023-02-19T22:48:11;102410.19;;;17.38;53.29
26839;BME280;40088;51.214;6.786;2023-02-19T22:58:11;102411.22;;;17.37;53.26
26839;BME280;40088;51.214;6.786;2023-02-19T23:08:11;102404.84;;;17.37;53.20
26839;BME280;40088;51.214;6.786;2023-02-19T23:18:11;102392.06;;;17.36;53.19
26839;BME280;40088;51.214;6.786;2023-02-19T23:28:12;102399.63;;;17.34;53.30
26839;BME280;40088;51.214;6.786;2023-02-19T23:38:12;102385.88;;;17.34;53.11
26839;BME280;40088;51.214;6.786;2023-02-19T23:48:12;102368.31;;;17.35;53.08
26839;BME280;40088;51.214;6.786;2023-02-19T23:58:13;102372.09;;;17.34;52.88
